Flight Track Log - Related Links

Times and Time Zones

All times are in EDT time to prevent confusion due to time zone crossing. See the SKW6492 flight status page for this flight to view local times or setup timezone preferences in your user account.

Time Position Orientation Groundspeed Altitude Reporting Facility
EDT Latitude Longitude Course Direction KTS MPH feet Rate Location/Type
Wed 10:21:08 PM 39.8786 -104.6031 343° North 156 180 6,600  Level Denver Center
Wed 10:22:10 PM 39.8897 -104.5272 79° East 213 245 8,300 1,756 Climbing Denver Center
Wed 10:23:11 PM 39.9261 -104.4436 60° Northeast 280 322 10,200 1,951 Climbing Denver Center
Wed 10:24:13 PM 40.0086 -104.4689 347° North 291 335 12,300 2,244 Climbing Denver Center
Wed 10:25:14 PM 40.0908 -104.5078 340° North 311 358 14,800 2,262 Climbing Denver Center
Wed 10:26:00 PM 40.3959 -105.1336 343° North  Level Estimated
Wed 10:26:15 PM 40.1739 -104.5483 340° North 321 369 16,900  Level Denver Center
Wed 10:27:17 PM 40.2636 -104.5919 340° North 320 368 18,700 1,561 Climbing Denver Center
Wed 10:28:18 PM 40.3517 -104.6350 340° North 339 390 20,100 1,415 Climbing Denver Center
Wed 10:29:20 PM 40.4400 -104.6806 339° North 342 394 21,600 1,415 Climbing Denver Center
Wed 10:30:21 PM 40.5392 -104.7275 340° North 351 404 23,000 1,180 Climbing Denver Center
Wed 10:31:22 PM 40.6306 -104.7758 338° Northwest 357 411 24,000 976 Climbing Denver Center
Wed 10:32:24 PM 40.7306 -104.8228 340° North 362 417 25,000 976 Climbing Denver Center
Wed 10:33:25 PM 40.8233 -104.8808 335° Northwest 365 420 26,000 878 Climbing Denver Center
Wed 10:34:27 PM 40.9047 -104.9689 321° Northwest 374 430 26,800 780 Climbing Denver Center
Wed 10:35:28 PM 40.9878 -105.0583 321° Northwest 383 441 27,600 738 Climbing Denver Center
Wed 10:36:29 PM 41.0736 -105.1478 322° Northwest 381 438 28,300 634 Climbing Denver Center
Wed 10:37:31 PM 41.1561 -105.2328 322° Northwest 387 445 28,900 634 Climbing Denver Center
Wed 10:38:32 PM 41.2508 -105.3325 322° Northwest 389 448 29,600 689 Climbing Denver Center
Wed 10:39:33 PM 41.3336 -105.4181 322° Northwest 391 450 30,300 780 Climbing Denver Center
Wed 10:40:35 PM 41.4331 -105.5131 324° Northwest 393 452 31,200 780 Climbing Denver Center
Wed 10:41:36 PM 41.5169 -105.5906 325° Northwest 385 443 31,900 393 Climbing Denver Center
Wed 10:42:37 PM 41.6014 -105.6717 324° Northwest 390 449 32,000 49 Climbing Denver Center
Wed 10:43:39 PM 41.7033 -105.7672 325° Northwest 399 459 32,000  Level Denver Center
Wed 10:44:40 PM 41.7911 -105.8519 324° Northwest 404 465 32,000  Level Denver Center
Wed 10:45:41 PM 41.8961 -105.9497 325° Northwest 408 470 32,000  Level Denver Center
Wed 10:46:42 PM 41.9853 -106.0358 324° Northwest 411 473 32,000  Level Denver Center
Wed 10:47:44 PM 42.0744 -106.1222 324° Northwest 412 474 32,000  Level Denver Center
Wed 10:48:45 PM 42.1756 -106.2214 324° Northwest 406 467 32,000  Level Denver Center
Wed 10:49:46 PM 42.2650 -106.3092 324° Northwest 412 474 32,000  Level Denver Center
Wed 10:50:48 PM 42.3558 -106.3961 325° Northwest 416 479 32,000  Level Denver Center
Wed 10:51:49 PM 42.4592 -106.4983 324° Northwest 414 476 32,000  Level Denver Center
Wed 10:52:50 PM 42.5489 -106.5861 324° Northwest 414 476 32,000  Level Denver Center
Wed 10:53:51 PM 42.6525 -106.6886 324° Northwest 413 475 32,000  Level Denver Center
Wed 10:54:53 PM 42.7422 -106.7769 324° Northwest 415 478 32,000  Level Denver Center
Wed 10:55:54 PM 42.8314 -106.8658 324° Northwest 416 479 32,000  Level Denver Center
Wed 10:56:55 PM 42.9356 -106.9694 324° Northwest 414 476 32,000  Level Denver Center
Wed 10:57:56 PM 43.0250 -107.0583 324° Northwest 414 476 32,000  Level Denver Center
Wed 10:58:57 PM 43.1144 -107.1489 324° Northwest 416 479 32,000  Level Denver Center
Wed 11:00:00 PM 43.2097 -107.2486 323° Northwest 416 479 32,000  Level Salt Lake Center
Wed 11:01:01 PM 43.3028 -107.3419 324° Northwest 414 476 32,000  Level Salt Lake Center
Wed 11:02:02 PM 43.3961 -107.4342 324° Northwest 414 476 32,000  Level Salt Lake Center
Wed 11:03:04 PM 43.5072 -107.5506 323° Northwest 417 480 32,000  Level Salt Lake Center
Wed 11:04:05 PM 43.5997 -107.6444 324° Northwest 414 476 32,000  Level Salt Lake Center
Wed 11:05:06 PM 43.6928 -107.7408 323° Northwest 417 480 32,000  Level Salt Lake Center
Wed 11:06:08 PM 43.7847 -107.8375 323° Northwest 415 478 32,000 -98 Level Salt Lake Center
Wed 11:07:09 PM 43.8783 -107.9322 324° Northwest 415 478 31,800 -1,623 Descending Salt Lake Center
Wed 11:08:10 PM 43.9756 -108.0336 323° Northwest 434 499 28,700 -2,976 Descending Salt Lake Center
Wed 11:09:12 PM 44.0708 -108.1328 323° Northwest 430 495 25,700 -2,927 Descending Salt Lake Center
Wed 11:10:13 PM 44.1619 -108.2283 323° Northwest 413 475 22,700 -2,951 Descending Salt Lake Center
Wed 11:11:14 PM 44.2481 -108.3214 322° Northwest 397 457 19,700 -2,656 Descending Salt Lake Center
Wed 11:12:15 PM 44.3333 -108.4114 323° Northwest 387 445 17,300 -2,508 Descending Salt Lake Center
Wed 11:13:16 PM 44.4175 -108.5006 323° Northwest 384 442 14,600 -2,341 Descending Salt Lake Center
Wed 11:14:18 PM 44.4975 -108.5861 323° Northwest 375 432 12,500 -1,756 Descending Salt Lake Center
Wed 11:15:19 PM 44.5736 -108.6650 324° Northwest 316 364 11,000 -1,377 Descending Salt Lake Center
Wed 11:16:20 PM 44.6261 -108.7217 322° Northwest 272 313 9,700 -1,377 Descending Salt Lake Center
Wed 11:17:21 PM 44.6464 -108.7942 291° West 249 287 8,200 -1,024 Descending Salt Lake Center
Wed 11:18:23 PM 44.6136 -108.8600 235° Southwest 223 257 7,600 -537 Descending Salt Lake Center
Wed 11:19:24 PM 44.5836 -108.9142 232° Southwest 198 228 7,100 -689 Descending Salt Lake Center
Wed 11:20:25 PM 44.5589 -108.9569 231° Southwest 166 191 6,200 -590 Descending Salt Lake Center
Wed 11:21:26 PM 44.5350 -108.9989 231° Southwest 159 183 5,900 -295 Descending Salt Lake Center

Login

Don't have an account? Register now (free) for customized features, flight alerts, and more!